createdAt,value
2018-10-05T00:00:11.704Z,97013.14
2018-10-05T00:02:40.215Z,97006.36
2018-10-05T00:05:08.873Z,97005.29
2018-10-05T00:07:37.468Z,97007.64
2018-10-05T00:10:06.126Z,97007.55
2018-10-05T00:12:34.815Z,97006.09
2018-10-05T00:15:03.428Z,97008.72
2018-10-05T00:17:31.992Z,96993.89
2018-10-05T00:20:00.806Z,96989.61
2018-10-05T00:22:29.369Z,96991.45
2018-10-05T00:24:57.933Z,96984.56
2018-10-05T00:27:26.473Z,96988.00
2018-10-05T00:29:55.108Z,96989.28
2018-10-05T00:32:23.689Z,96985.63
2018-10-05T00:34:52.232Z,96978.83
2018-10-05T00:37:20.756Z,96978.05
2018-10-05T00:39:49.320Z,96977.43
2018-10-05T00:42:17.849Z,96977.94
2018-10-05T00:44:46.400Z,96971.16
2018-10-05T00:47:14.972Z,96971.56
2018-10-05T00:49:43.612Z,96969.63
2018-10-05T00:52:12.160Z,96970.38
2018-10-05T00:54:40.977Z,96966.28
2018-10-05T00:57:09.503Z,96960.25
2018-10-05T00:59:38.083Z,96959.42
2018-10-05T01:02:06.944Z,96955.14
2018-10-05T01:04:35.492Z,96952.89
2018-10-05T01:07:04.112Z,96948.94
2018-10-05T01:09:32.744Z,96950.22
2018-10-05T01:12:01.266Z,96947.92
2018-10-05T01:14:29.853Z,96950.09
2018-10-05T01:16:58.636Z,96946.26
2018-10-05T01:19:27.188Z,96952.37
2018-10-05T01:21:55.721Z,96948.45
2018-10-05T01:24:24.299Z,96947.09
2018-10-05T01:26:52.959Z,96951.41
2018-10-05T01:29:21.497Z,96951.29
2018-10-05T01:31:50.076Z,96954.19
2018-10-05T01:34:18.612Z,96949.34
2018-10-05T01:36:49.158Z,96941.92
2018-10-05T01:39:17.691Z,96941.38
2018-10-05T01:41:46.268Z,96939.22
2018-10-05T01:44:14.794Z,96943.88
2018-10-05T01:46:43.371Z,96934.69
2018-10-05T01:49:11.915Z,96935.70
2018-10-05T01:51:40.461Z,96931.00
2018-10-05T01:54:08.987Z,96930.64
2018-10-05T01:56:37.544Z,96924.34
2018-10-05T01:59:06.197Z,96926.11
2018-10-05T02:01:34.746Z,96931.60
2018-10-05T02:04:03.431Z,96924.78
2018-10-05T02:06:32.032Z,96932.13
2018-10-05T02:09:00.598Z,96925.67
2018-10-05T02:11:29.116Z,96923.12
2018-10-05T02:13:57.692Z,96922.98
2018-10-05T02:16:26.203Z,96924.34
2018-10-05T02:18:54.840Z,96920.08
2018-10-05T02:21:23.378Z,96920.16
2018-10-05T02:23:51.956Z,96915.11
2018-10-05T02:26:20.699Z,96921.38
2018-10-05T02:28:49.460Z,96924.04
2018-10-05T02:31:18.123Z,96919.45
2018-10-05T02:33:46.702Z,96919.23
2018-10-05T02:36:15.636Z,96919.48
2018-10-05T02:38:44.612Z,96921.33
2018-10-05T02:41:14.280Z,96919.92
2018-10-05T02:43:42.812Z,96923.75
2018-10-05T02:46:11.443Z,96918.89
2018-10-05T02:48:40.117Z,96918.92
2018-10-05T02:51:08.813Z,96910.30
2018-10-05T02:53:37.496Z,96913.16
2018-10-05T02:56:06.180Z,96915.13
2018-10-05T02:58:34.718Z,96912.77
2018-10-05T03:01:14.248Z,96916.09
2018-10-05T03:03:42.777Z,96909.36
2018-10-05T03:06:11.313Z,96906.64
2018-10-05T03:08:39.852Z,96896.97
2018-10-05T03:11:08.383Z,96894.34
2018-10-05T03:13:36.924Z,96890.30
2018-10-05T03:16:05.479Z,96891.41
2018-10-05T03:18:34.028Z,96883.06
2018-10-05T03:21:02.897Z,96881.04
2018-10-05T03:23:31.452Z,96883.81
2018-10-05T03:26:00.026Z,96877.22
2018-10-05T03:28:28.580Z,96875.94
2018-10-05T03:30:57.107Z,96873.88
2018-10-05T03:33:25.665Z,96875.11
2018-10-05T03:35:54.217Z,96874.33
2018-10-05T03:38:22.739Z,96873.03
2018-10-05T03:40:51.304Z,96880.52
2018-10-05T03:43:19.808Z,96872.45
2018-10-05T03:45:48.324Z,96866.69
2018-10-05T03:48:16.961Z,96870.38
2018-10-05T03:50:45.501Z,96870.78
2018-10-05T03:53:14.057Z,96867.71
2018-10-05T03:55:42.606Z,96860.84
2018-10-05T03:58:11.164Z,96857.85
2018-10-05T04:00:39.700Z,96852.36
2018-10-05T04:03:08.295Z,96850.04
2018-10-05T04:05:36.836Z,96845.69
2018-10-05T04:08:05.507Z,96847.08
2018-10-05T04:10:34.043Z,96846.86
2018-10-05T04:13:02.642Z,96843.20
2018-10-05T04:15:31.325Z,96842.14
2018-10-05T04:17:59.911Z,96836.77
2018-10-05T04:20:28.449Z,96831.50
2018-10-05T04:22:56.991Z,96841.25
2018-10-05T04:25:25.563Z,96832.63
2018-10-05T04:27:54.111Z,96826.33
2018-10-05T04:30:22.717Z,96833.00
2018-10-05T04:32:51.283Z,96829.03
2018-10-05T04:35:19.844Z,96833.00
2018-10-05T04:37:48.387Z,96836.95
2018-10-05T04:40:17.579Z,96842.00
2018-10-05T04:42:46.145Z,96846.27
2018-10-05T04:45:14.703Z,96854.34
2018-10-05T04:47:43.216Z,96854.22
2018-10-05T04:50:11.761Z,96854.44
2018-10-05T04:52:40.421Z,96859.45
2018-10-05T04:55:08.980Z,96855.41
2018-10-05T04:57:37.558Z,96862.33
2018-10-05T05:00:06.248Z,96860.89
2018-10-05T05:02:35.676Z,96857.91
2018-10-05T05:05:04.240Z,96856.47
2018-10-05T05:07:32.830Z,96857.52
2018-10-05T05:10:01.439Z,96856.91
2018-10-05T05:12:29.986Z,96857.80
2018-10-05T05:14:58.546Z,96859.01
2018-10-05T05:17:27.165Z,96854.27
2018-10-05T05:19:55.712Z,96854.95
2018-10-05T05:22:24.223Z,96861.03
2018-10-05T05:24:52.795Z,96860.04
2018-10-05T05:27:21.315Z,96862.53
2018-10-05T05:29:49.852Z,96858.70
2018-10-05T05:32:18.596Z,96859.21
2018-10-05T05:34:47.148Z,96855.17
2018-10-05T05:37:15.733Z,96850.67
2018-10-05T05:39:44.294Z,96850.89
2018-10-05T05:42:12.828Z,96847.95
2018-10-05T05:44:41.367Z,96853.45
2018-10-05T05:47:10.132Z,96854.73
2018-10-05T05:49:38.808Z,96857.66
2018-10-05T05:52:07.552Z,96857.89
2018-10-05T05:54:36.138Z,96859.83
2018-10-05T05:57:04.659Z,96868.25
2018-10-05T05:59:33.239Z,96861.12
2018-10-05T06:02:01.915Z,96871.23
2018-10-05T06:04:30.464Z,96874.89
2018-10-05T06:06:59.057Z,96879.88
2018-10-05T06:09:27.657Z,96877.55
2018-10-05T06:11:56.220Z,96875.02
2018-10-05T06:14:24.773Z,96869.92
2018-10-05T06:16:53.310Z,96873.59
2018-10-05T06:19:21.836Z,96880.45
2018-10-05T06:21:50.513Z,96877.55
2018-10-05T06:24:18.992Z,96870.88
2018-10-05T06:26:52.599Z,96872.73
2018-10-05T06:29:21.149Z,96867.38
2018-10-05T06:31:49.746Z,96865.96
2018-10-05T06:34:18.274Z,96865.18
2018-10-05T06:36:46.840Z,96866.77
2018-10-05T06:39:15.451Z,96870.02
2018-10-05T06:41:43.913Z,96865.12
2018-10-05T06:44:12.465Z,96865.86
2018-10-05T06:46:41.020Z,96865.06
2018-10-05T06:49:09.592Z,96869.34
2018-10-05T06:51:38.150Z,96863.05
2018-10-05T06:54:06.740Z,96861.23
2018-10-05T06:56:35.276Z,96864.47
2018-10-05T06:59:03.808Z,96859.53
2018-10-05T07:01:32.442Z,96860.09
2018-10-05T07:04:00.903Z,96869.97
2018-10-05T07:06:29.479Z,96873.84
2018-10-05T07:08:58.000Z,96869.27
2018-10-05T07:11:26.626Z,96863.17
2018-10-05T07:13:55.216Z,96859.59
2018-10-05T07:16:23.793Z,96863.52
2018-10-05T07:21:55.016Z,96854.56
2018-10-05T07:24:23.563Z,96853.20
2018-10-05T07:26:52.099Z,96857.03
2018-10-05T07:29:20.668Z,96858.20
2018-10-05T07:31:49.276Z,96857.62
2018-10-05T07:34:18.047Z,96853.48
2018-10-05T07:36:46.623Z,96852.80
2018-10-05T07:39:15.160Z,96851.42
2018-10-05T07:41:43.744Z,96848.45
2018-10-05T07:44:12.277Z,96844.48
2018-10-05T07:46:40.837Z,96853.23
2018-10-05T07:49:09.396Z,96852.47
2018-10-05T07:51:37.985Z,96858.02
2018-10-05T07:54:06.573Z,96857.39
2018-10-05T07:56:35.115Z,96855.48
2018-10-05T07:59:03.674Z,96850.76
2018-10-05T08:01:32.229Z,96848.04
2018-10-05T08:04:00.837Z,96837.19
2018-10-05T08:06:29.403Z,96832.70
2018-10-05T08:08:57.945Z,96834.08
2018-10-05T08:11:26.484Z,96839.02
2018-10-05T08:13:55.063Z,96839.41
2018-10-05T08:16:23.601Z,96844.92
2018-10-05T08:18:52.270Z,96846.84
2018-10-05T08:21:20.896Z,96845.13
2018-10-05T08:23:49.761Z,96833.68
2018-10-05T08:26:18.335Z,96840.16
2018-10-05T08:28:47.196Z,96844.30
2018-10-05T08:31:15.764Z,96838.13
2018-10-05T08:33:44.388Z,96837.30
2018-10-05T08:36:12.903Z,96831.66
2018-10-05T08:38:41.544Z,96828.97
2018-10-05T08:41:10.093Z,96827.89
2018-10-05T08:43:38.776Z,96825.52
2018-10-05T08:46:07.400Z,96833.80
2018-10-05T08:48:35.946Z,96828.69
2018-10-05T08:51:04.503Z,96827.63
2018-10-05T08:53:33.060Z,96829.35
2018-10-05T08:56:01.650Z,96831.61
2018-10-05T08:58:30.268Z,96827.91
2018-10-05T09:00:58.801Z,96823.48
2018-10-05T09:03:27.365Z,96825.58
2018-10-05T09:05:56.084Z,96828.42
2018-10-05T09:08:24.489Z,96832.86
2018-10-05T09:10:53.056Z,96831.59
2018-10-05T09:13:21.585Z,96825.67
2018-10-05T09:15:50.107Z,96821.38
2018-10-05T09:18:18.867Z,96823.13
2018-10-05T09:20:47.388Z,96823.75
2018-10-05T09:23:15.929Z,96825.88
2018-10-05T09:25:44.446Z,96824.33
2018-10-05T09:28:12.993Z,96820.36
2018-10-05T09:30:41.524Z,96811.56
2018-10-05T09:33:10.076Z,96800.55
2018-10-05T09:35:38.684Z,96795.85
2018-10-05T09:38:07.234Z,96791.50
2018-10-05T09:40:35.756Z,96789.06
2018-10-05T09:43:04.305Z,96788.86
2018-10-05T09:45:32.840Z,96787.06
2018-10-05T09:48:01.437Z,96784.59
2018-10-05T09:50:29.955Z,96777.77
2018-10-05T09:52:58.527Z,96776.87
2018-10-05T09:55:27.101Z,96776.98
2018-10-05T09:57:55.649Z,96763.57
2018-10-05T10:00:40.562Z,96762.41
2018-10-05T10:03:14.203Z,96762.08
2018-10-05T10:05:42.743Z,96757.65
2018-10-05T10:08:11.437Z,96752.08
2018-10-05T10:10:39.979Z,96751.12
2018-10-05T10:13:08.540Z,96749.05
2018-10-05T10:15:37.120Z,96752.08
2018-10-05T10:18:05.944Z,96747.22
2018-10-05T10:20:34.524Z,96748.91
2018-10-05T10:23:03.052Z,96738.96
2018-10-05T10:25:31.657Z,96736.48
2018-10-05T10:28:00.251Z,96737.69
2018-10-05T10:30:28.742Z,96734.73
2018-10-05T10:32:57.277Z,96737.78
2018-10-05T10:35:25.823Z,96740.38
2018-10-05T10:37:54.490Z,96745.76
2018-10-05T10:40:23.015Z,96737.27
2018-10-05T10:42:51.641Z,96731.56
2018-10-05T10:45:20.175Z,96728.79
2018-10-05T10:47:48.763Z,96737.41
2018-10-05T10:50:17.292Z,96732.27
2018-10-05T10:52:45.815Z,96743.39
2018-10-05T10:55:14.363Z,96744.55
2018-10-05T10:57:42.900Z,96737.22
2018-10-05T11:00:11.525Z,96731.76
2018-10-05T11:02:40.072Z,96729.99
2018-10-05T11:05:08.623Z,96717.94
2018-10-05T11:10:28.192Z,96722.34
2018-10-05T11:12:56.719Z,96720.70
2018-10-05T11:15:25.325Z,96719.90
2018-10-05T11:17:57.880Z,96714.73
2018-10-05T11:20:26.536Z,96711.59
2018-10-05T11:22:55.068Z,96710.66
2018-10-05T11:25:23.610Z,96707.08
2018-10-05T11:27:52.227Z,96704.65
2018-10-05T11:30:20.779Z,96698.28
2018-10-05T11:32:49.337Z,96696.31
2018-10-05T11:35:17.959Z,96690.95
2018-10-05T11:37:46.484Z,96682.80
2018-10-05T11:40:15.084Z,96678.06
2018-10-05T11:42:43.655Z,96673.70
2018-10-05T11:45:12.209Z,96668.98
2018-10-05T11:47:40.736Z,96674.52
2018-10-05T11:50:09.339Z,96672.39
2018-10-05T11:52:37.859Z,96675.97
2018-10-05T11:55:06.434Z,96672.39
2018-10-05T11:57:34.960Z,96668.34
2018-10-05T12:00:06.910Z,96667.05
2018-10-05T12:02:35.532Z,96666.41
2018-10-05T12:05:04.147Z,96663.14
2018-10-05T12:07:32.696Z,96657.45
2018-10-05T12:10:02.008Z,96661.84
2018-10-05T12:12:30.567Z,96655.02
2018-10-05T12:14:59.084Z,96645.23
2018-10-05T12:17:27.854Z,96650.27
2018-10-05T12:19:56.440Z,96652.88
2018-10-05T12:22:25.027Z,96650.12
2018-10-05T12:24:53.571Z,96653.69
2018-10-05T12:27:22.125Z,96641.82
2018-10-05T12:29:50.714Z,96634.50
2018-10-05T12:32:19.232Z,96636.56
2018-10-05T12:34:47.788Z,96637.05
2018-10-05T12:37:16.466Z,96633.28
2018-10-05T12:39:44.920Z,96633.80
2018-10-05T12:42:13.464Z,96626.77
2018-10-05T12:44:42.159Z,96628.72
2018-10-05T12:47:10.713Z,96618.61
2018-10-05T12:49:39.280Z,96620.12
2018-10-05T12:52:07.861Z,96628.78
2018-10-05T12:54:36.443Z,96631.09
2018-10-05T12:57:05.051Z,96622.13
2018-10-05T12:59:33.596Z,96615.77
2018-10-05T13:02:02.142Z,96615.59
2018-10-05T13:04:30.665Z,96609.53
2018-10-05T13:06:59.224Z,96601.54
2018-10-05T13:09:27.759Z,96605.09
2018-10-05T13:11:56.308Z,96611.83
2018-10-05T13:14:24.853Z,96616.00
2018-10-05T13:16:53.414Z,96609.35
2018-10-05T13:19:21.968Z,96613.86
2018-10-05T13:21:50.531Z,96607.82
2018-10-05T13:24:19.059Z,96595.53
2018-10-05T13:26:47.608Z,96591.27
2018-10-05T13:29:16.156Z,96586.74
2018-10-05T13:31:44.700Z,96581.44
2018-10-05T13:34:13.339Z,96587.49
2018-10-05T13:36:41.800Z,96584.63
2018-10-05T13:39:11.232Z,96582.62
2018-10-05T13:41:40.266Z,96585.31
2018-10-05T13:44:08.806Z,96590.70
2018-10-05T13:46:37.363Z,96589.88
2018-10-05T13:49:06.720Z,96585.95
2018-10-05T13:51:36.568Z,96588.38
2018-10-05T13:54:05.393Z,96589.88
2018-10-05T13:56:34.356Z,96590.62
2018-10-05T13:59:02.925Z,96586.63
2018-10-05T14:01:31.472Z,96572.77
2018-10-05T14:04:00.045Z,96572.48
2018-10-05T14:06:28.614Z,96570.49
2018-10-05T14:08:57.930Z,96569.80
2018-10-05T14:11:26.546Z,96567.44
2018-10-05T14:13:55.124Z,96564.20
2018-10-05T14:19:13.799Z,96569.95
2018-10-05T14:21:42.340Z,96565.11
2018-10-05T14:24:10.948Z,96557.42
2018-10-05T14:26:39.500Z,96549.95
2018-10-05T14:29:08.077Z,96543.66
2018-10-05T14:31:36.625Z,96543.42
2018-10-05T14:34:05.183Z,96539.06
2018-10-05T14:36:33.735Z,96537.30
2018-10-05T14:39:02.352Z,96534.14
2018-10-05T14:41:30.997Z,96532.27
2018-10-05T14:43:59.504Z,96525.78
2018-10-05T14:46:28.061Z,96530.10
2018-10-05T14:48:56.665Z,96536.09
2018-10-05T14:51:25.254Z,96534.81
2018-10-05T14:53:53.799Z,96532.95
2018-10-05T14:56:22.363Z,96534.91
2018-10-05T14:58:50.994Z,96532.00
2018-10-05T15:01:19.574Z,96529.79
2018-10-05T15:03:48.151Z,96525.97
2018-10-05T15:06:16.703Z,96516.53
2018-10-05T15:08:45.242Z,96517.66
2018-10-05T15:11:13.788Z,96518.48
2018-10-05T15:13:42.429Z,96512.80
2018-10-05T15:16:11.113Z,96508.52
2018-10-05T15:18:39.660Z,96505.34
2018-10-05T15:21:08.308Z,96503.41
2018-10-05T15:23:36.987Z,96501.87
2018-10-05T15:26:05.615Z,96500.53
2018-10-05T15:28:34.187Z,96505.02
2018-10-05T15:31:02.819Z,96509.00
2018-10-05T15:33:31.389Z,96506.12
2018-10-05T15:35:59.930Z,96499.27
2018-10-05T15:38:28.495Z,96497.66
2018-10-05T15:40:57.084Z,96500.64
2018-10-05T15:43:25.646Z,96491.72
2018-10-05T15:46:08.347Z,96488.70
2018-10-05T15:51:27.088Z,96495.00
2018-10-05T15:53:55.636Z,96493.37
2018-10-05T15:56:24.178Z,96497.70
2018-10-05T15:58:52.754Z,96502.15
2018-10-05T16:01:21.278Z,96492.47
2018-10-05T16:03:49.836Z,96502.58
2018-10-05T16:06:18.456Z,96496.91
2018-10-05T16:08:46.995Z,96495.33
2018-10-05T16:11:15.567Z,96489.47
2018-10-05T16:13:44.113Z,96490.80
2018-10-05T16:16:12.713Z,96491.64
2018-10-05T17:56:10.341Z,96436.21
2018-10-05T17:58:38.871Z,96441.77
2018-10-05T18:01:07.725Z,96445.71
2018-10-05T18:03:37.078Z,96445.62
2018-10-05T18:06:05.622Z,96444.38
2018-10-05T18:08:34.216Z,96438.94
2018-10-05T18:11:02.752Z,96433.09
2018-10-05T18:13:31.306Z,96429.83
2018-10-05T18:15:59.924Z,96427.63
2018-10-05T18:18:28.508Z,96429.00
2018-10-05T18:20:57.048Z,96427.54
2018-10-05T18:23:25.640Z,96422.20
2018-10-05T18:25:54.204Z,96423.17
2018-10-05T18:28:22.732Z,96421.20
2018-10-05T18:30:57.243Z,96415.71
2018-10-05T18:33:25.796Z,96416.25
2018-10-05T18:35:54.567Z,96412.45
2018-10-05T18:38:23.136Z,96414.28
2018-10-05T18:40:51.680Z,96418.66
2018-10-05T18:43:20.228Z,96415.93
2018-10-05T18:45:48.798Z,96413.89
2018-10-05T18:48:17.343Z,96411.59
2018-10-05T18:50:45.935Z,96403.95
2018-10-05T18:53:14.516Z,96404.06
2018-10-05T18:55:43.068Z,96409.61
2018-10-05T18:58:11.632Z,96408.40
2018-10-05T19:00:40.305Z,96410.71
2018-10-05T19:03:08.889Z,96412.28
2018-10-05T19:05:37.525Z,96413.91
2018-10-05T19:08:06.467Z,96415.97
2018-10-05T19:10:34.993Z,96415.02
2018-10-05T19:13:03.621Z,96411.41
2018-10-05T19:15:32.162Z,96411.80
2018-10-05T19:18:00.691Z,96401.63
2018-10-05T19:20:29.409Z,96398.25
2018-10-05T19:22:58.113Z,96393.30
2018-10-05T19:25:26.732Z,96389.95
2018-10-05T19:27:55.289Z,96387.23
2018-10-05T19:30:23.836Z,96386.91
2018-10-05T19:32:52.425Z,96374.61
2018-10-05T19:35:20.951Z,96370.20
2018-10-05T19:37:49.819Z,96374.54
2018-10-05T19:40:18.798Z,96369.33
2018-10-05T19:42:47.702Z,96370.73
2018-10-05T19:45:16.395Z,96362.12
2018-10-05T19:47:45.215Z,96363.41
2018-10-05T19:50:13.827Z,96358.86
2018-10-05T19:52:42.382Z,96365.91
2018-10-05T19:55:10.915Z,96363.11
2018-10-05T19:57:39.477Z,96358.59
2018-10-05T20:00:08.061Z,96353.22
2018-10-05T20:02:37.498Z,96353.62
2018-10-05T20:05:06.135Z,96358.28
2018-10-05T20:07:34.695Z,96351.13
2018-10-05T20:10:03.334Z,96327.89
2018-10-05T20:12:31.872Z,96357.16
2018-10-05T20:15:00.483Z,96352.96
2018-10-05T20:17:29.020Z,96358.88
2018-10-05T20:19:57.588Z,96352.72
2018-10-05T20:22:26.168Z,96352.22
2018-10-05T20:24:54.729Z,96344.17
2018-10-05T20:27:23.268Z,96352.52
2018-10-05T20:29:51.863Z,96348.47
2018-10-05T20:32:20.433Z,96340.36
2018-10-05T20:34:48.993Z,96350.45
2018-10-05T20:37:17.614Z,96340.82
2018-10-05T20:39:46.159Z,96345.73
2018-10-05T20:42:14.712Z,96348.56
2018-10-05T20:44:43.264Z,96348.52
2018-10-05T20:47:11.864Z,96348.13
2018-10-05T20:49:40.427Z,96345.86
2018-10-05T20:52:08.982Z,96348.48
2018-10-05T20:54:37.509Z,96347.25
2018-10-05T20:57:06.116Z,96344.98
2018-10-05T20:59:34.656Z,96343.92
2018-10-05T21:02:03.298Z,96338.69
2018-10-05T21:04:31.879Z,96330.00
2018-10-05T21:07:00.427Z,96329.80
2018-10-05T21:09:28.974Z,96323.70
2018-10-05T21:11:57.551Z,96331.52
2018-10-05T21:14:26.131Z,96325.31
2018-10-05T21:16:54.671Z,96331.87
2018-10-05T21:19:23.223Z,96332.47
2018-10-05T21:21:51.771Z,96332.60
2018-10-05T21:24:20.296Z,96330.86
2018-10-05T21:26:48.844Z,96332.17
2018-10-05T21:29:20.321Z,96329.42
2018-10-05T21:31:48.859Z,96325.33
2018-10-05T21:34:17.384Z,96321.86
2018-10-05T21:36:45.978Z,96315.36
2018-10-05T21:39:14.540Z,96319.09
2018-10-05T21:41:43.177Z,96312.80
2018-10-05T21:44:11.784Z,96311.73
2018-10-05T21:46:40.677Z,96310.00
2018-10-05T21:49:09.215Z,96307.94
2018-10-05T21:51:37.797Z,96301.31
2018-10-05T21:54:06.425Z,96304.01
2018-10-05T21:56:34.971Z,96302.94
2018-10-05T21:59:03.646Z,96305.41
2018-10-05T22:01:32.320Z,96295.52
2018-10-05T22:04:00.852Z,96303.30
2018-10-05T22:06:29.396Z,96301.11
2018-10-05T22:08:57.916Z,96304.05
2018-10-05T22:11:26.452Z,96303.92
2018-10-05T22:13:54.996Z,96294.36
2018-10-05T22:16:23.515Z,96294.23
